South Paterson, New Jersey
Current Conditions -  °F | °C
As of 7:51 AM on Sunday 21 Dec 2014 (Local Time) from KTEB Reporting Station
Overcast Overcast  
Wind Chill: 26°   Ceiling: 2400
Heat Index: 32°   Visibility: 10mi
Dew Point: 24°   Wind: 6mph
Humidity: 73%   Direction: 320°NW
Pressure: 30.3"   Gusts: NA
Location:  40.8979°N, 74.1545°W
Report Text: KTEB 211251Z 32005KT 10SM OVC024 00/M04 A3030 RMK AO2 SLP260 T00001044
Loading
Personal Weather Stations






























Interactive Weather Map New forecast layout! Learn more

10-Day Weather Forecast

Advertisements
Track Severe Weather on mobile